METAR AND TAF INFORMATION
METAR FOR EKEB
ADDS - METARS form results

(1048 UTC 21 March 2019)
Data provider http://aviationweather.gov/metar/data/
 
METAR text: EKEB 211020Z AUTO 24013KT 6000 BKN006/// 09/08 Q1029
Conditions at: EKEB (ESBJERG , DK) observed 1020 UTC 21 March 2019
Temperature: 9.0°C (48°F)
Dewpoint: 8.0°C (46°F) [RH = 93%]
Pressure (altimeter): 30.38 inches Hg (1029.0 mb)
Winds: from the WSW (240 degrees) at 15 MPH (13 knots; 6.7 m/s)
Visibility: 4 miles ( 6 km)
Ceiling: 600 feet AGL
Clouds: broken clouds at 600 feet AGL
Weather: no significant weather observed at this time

METAR text: EKEB 210950Z AUTO 23013KT 5000 BKN005/// 09/08 Q1029
Conditions at: EKEB (ESBJERG , DK) observed 0950 UTC 21 March 2019
Temperature: 9.0°C (48°F)
Dewpoint: 8.0°C (46°F) [RH = 93%]
Pressure (altimeter): 30.38 inches Hg (1029.0 mb)
Winds: from the SW (230 degrees) at 15 MPH (13 knots; 6.7 m/s)
Visibility: 3 miles ( 5 km)
Ceiling: 500 feet AGL
Clouds: broken clouds at 500 feet AGL
Weather: no significant weather observed at this time

Forecast for: EKEB (ESBJERG , DK)
Text: TAF EKEB 210824Z 2109/2118 21012KT 6000 BKN012
Forecast period: 0900 to 1800 UTC 21 March 2019
Forecast type: FROM: standard forecast or significant change
Winds: from the SSW (210 degrees) at 14 MPH (12 knots; 6.2 m/s)
Visibility: 4 miles (6 km)
Ceiling: 1200 feet AGL
Clouds: broken clouds at 1200 feet AGL
Weather: no significant weather forecast for this period
Text: TEMPO 2109/2118 2500 BR BKN002
Forecast period: 0900 to 1800 UTC 21 March 2019
Forecast type: TEMPORARY: The following changes expected for less than half the time period
Visibility: 1.55 miles (2.49 km)
Ceiling: 200 feet AGL
Clouds: broken clouds at 200 feet AGL
Weather: BR  (mist)

 AIRPORT MAP

 RUNWAY INFORMATION
Runway 08 Runway length 8527 ft Runway width 148 ft
Runway elevation 78 ft Runway displaced threshold 0 ft Runway heading 79
Runway 26 Runway length 8527 ft Runway width 148 ft
Runway elevation 97 ft Runway displaced threshold 0 ft Runway heading 259

 AIRPORT FREQUENCIES
Type AFIS Name AFIS Frequency 120.15 MHZ
Type MISC Name HANDLING Frequency 130.575 MHZ

 AIRPORT NEAR NAVIGATION AIDS
Type NDB Name Esbjerg Frequency 376 KHZ



©2017-2018 BlueSkies Virtual